sensor_id;sensor_type;location;lat;lon;timestamp;pressure;altitude;pressure_sealevel;temperature;humidity
48778;BME280;34578;0.000;0.000;2024-02-23T00:03:29;94915.84;;;18.54;59.35
48778;BME280;34578;0.000;0.000;2024-02-23T00:08:30;94916.59;;;18.57;59.29
48778;BME280;34578;0.000;0.000;2024-02-23T00:13:30;94915.78;;;18.57;59.32
48778;BME280;34578;0.000;0.000;2024-02-23T00:18:31;94939.53;;;18.53;58.89
48778;BME280;34578;0.000;0.000;2024-02-23T00:23:31;94928.09;;;18.40;59.42
48778;BME280;34578;0.000;0.000;2024-02-23T00:28:32;94938.75;;;18.51;59.36
48778;BME280;34578;0.000;0.000;2024-02-23T00:33:32;94956.34;;;18.57;59.11
48778;BME280;34578;0.000;0.000;2024-02-23T00:38:33;94947.03;;;18.56;59.35
48778;BME280;34578;0.000;0.000;2024-02-23T00:43:40;94940.44;;;18.50;59.84
48778;BME280;34578;0.000;0.000;2024-02-23T00:48:41;94958.91;;;18.55;59.20
48778;BME280;34578;0.000;0.000;2024-02-23T00:53:41;94985.94;;;18.55;59.17
48778;BME280;34578;0.000;0.000;2024-02-23T00:58:42;94955.16;;;18.38;59.28
48778;BME280;34578;0.000;0.000;2024-02-23T01:03:42;94990.13;;;18.56;59.17
48778;BME280;34578;0.000;0.000;2024-02-23T01:08:43;95000.25;;;18.56;59.33
48778;BME280;34578;0.000;0.000;2024-02-23T01:13:43;94995.19;;;18.56;58.98
48778;BME280;34578;0.000;0.000;2024-02-23T01:18:44;95002.00;;;18.54;59.03
48778;BME280;34578;0.000;0.000;2024-02-23T01:23:45;94990.19;;;18.54;59.07
48778;BME280;34578;0.000;0.000;2024-02-23T01:28:45;94976.06;;;18.46;59.30
48778;BME280;34578;0.000;0.000;2024-02-23T01:33:45;94979.22;;;18.54;59.38
48778;BME280;34578;0.000;0.000;2024-02-23T01:38:46;94990.97;;;18.56;59.09
48778;BME280;34578;0.000;0.000;2024-02-23T01:43:46;94964.06;;;18.52;59.37
48778;BME280;34578;0.000;0.000;2024-02-23T01:48:47;94973.38;;;18.52;59.22
48778;BME280;34578;0.000;0.000;2024-02-23T01:53:47;94944.09;;;18.42;59.49
48778;BME280;34578;0.000;0.000;2024-02-23T01:58:49;94962.31;;;18.54;59.30
48778;BME280;34578;0.000;0.000;2024-02-23T02:03:49;94962.25;;;18.56;59.48
48778;BME280;34578;0.000;0.000;2024-02-23T02:08:50;94964.78;;;18.56;59.31
48778;BME280;34578;0.000;0.000;2024-02-23T02:13:50;94967.38;;;18.54;59.40
48778;BME280;34578;0.000;0.000;2024-02-23T02:18:51;94951.34;;;18.54;59.44
48778;BME280;34578;0.000;0.000;2024-02-23T02:23:51;94968.19;;;18.55;59.03
48778;BME280;34578;0.000;0.000;2024-02-23T02:28:51;94952.25;;;18.51;59.44
48778;BME280;34578;0.000;0.000;2024-02-23T02:33:52;94940.41;;;18.52;59.58
48778;BME280;34578;0.000;0.000;2024-02-23T02:38:53;94946.25;;;18.54;59.15
48778;BME280;34578;0.000;0.000;2024-02-23T02:43:53;94927.75;;;18.52;59.32
48778;BME280;34578;0.000;0.000;2024-02-23T02:48:53;94935.31;;;18.53;59.27
48778;BME280;34578;0.000;0.000;2024-02-23T02:53:54;94927.75;;;18.52;59.28
48778;BME280;34578;0.000;0.000;2024-02-23T02:58:54;94919.38;;;18.50;59.40
48778;BME280;34578;0.000;0.000;2024-02-23T03:03:55;94920.16;;;18.52;59.94
48778;BME280;34578;0.000;0.000;2024-02-23T03:08:56;94923.53;;;18.52;59.34
48778;BME280;34578;0.000;0.000;2024-02-23T03:13:56;94917.00;;;18.44;59.64
48778;BME280;34578;0.000;0.000;2024-02-23T03:18:57;94941.28;;;18.51;59.54
48778;BME280;34578;0.000;0.000;2024-02-23T03:23:57;94941.28;;;18.51;59.84
48778;BME280;34578;0.000;0.000;2024-02-23T03:28:57;94935.38;;;18.50;59.40
48778;BME280;34578;0.000;0.000;2024-02-23T03:33:58;94921.91;;;18.50;59.64
48778;BME280;34578;0.000;0.000;2024-02-23T03:38:58;94910.88;;;18.51;59.56
48778;BME280;34578;0.000;0.000;2024-02-23T03:43:58;94923.56;;;18.51;59.18
48778;BME280;34578;0.000;0.000;2024-02-23T03:48:59;94919.38;;;18.50;59.34
48778;BME280;34578;0.000;0.000;2024-02-23T03:53:59;94891.16;;;18.33;59.28
48778;BME280;34578;0.000;0.000;2024-02-23T03:58:59;94924.44;;;18.50;59.24
48778;BME280;34578;0.000;0.000;2024-02-23T04:04:00;94927.00;;;18.48;59.33
48778;BME280;34578;0.000;0.000;2024-02-23T04:09:00;94921.91;;;18.50;59.16
48778;BME280;34578;0.000;0.000;2024-02-23T04:14:01;94922.78;;;18.49;59.37
48778;BME280;34578;0.000;0.000;2024-02-23T04:19:01;94916.84;;;18.50;59.31
48778;BME280;34578;0.000;0.000;2024-02-23T04:24:02;94912.66;;;18.49;59.41
48778;BME280;34578;0.000;0.000;2024-02-23T04:29:02;94922.78;;;18.49;59.12
48778;BME280;34578;0.000;0.000;2024-02-23T04:34:02;94911.16;;;18.42;59.17
48778;BME280;34578;0.000;0.000;2024-02-23T04:39:03;94932.94;;;18.47;59.11
48778;BME280;34578;0.000;0.000;2024-02-23T04:44:04;94936.13;;;18.54;59.07
48778;BME280;34578;0.000;0.000;2024-02-23T04:49:04;94931.00;;;18.57;59.08
48778;BME280;34578;0.000;0.000;2024-02-23T04:54:05;94941.19;;;18.54;59.12
48778;BME280;34578;0.000;0.000;2024-02-23T04:59:05;94941.06;;;18.58;58.71
48778;BME280;34578;0.000;0.000;2024-02-23T05:04:06;94944.31;;;18.63;58.64
48778;BME280;34578;0.000;0.000;2024-02-23T05:09:06;94951.00;;;18.66;58.31
48778;BME280;34578;0.000;0.000;2024-02-23T05:14:09;94940.88;;;18.66;58.45
48778;BME280;34578;0.000;0.000;2024-02-23T05:19:09;94936.63;;;18.65;58.46
48778;BME280;34578;0.000;0.000;2024-02-23T05:24:11;94937.44;;;18.67;58.48
48778;BME280;34578;0.000;0.000;2024-02-23T05:29:11;94928.88;;;18.71;57.99
48778;BME280;34578;0.000;0.000;2024-02-23T05:34:13;94927.97;;;18.73;58.04
48778;BME280;34578;0.000;0.000;2024-02-23T05:39:14;94927.97;;;18.73;57.79
48778;BME280;34578;0.000;0.000;2024-02-23T05:44:15;94938.06;;;18.75;57.63
48778;BME280;34578;0.000;0.000;2024-02-23T05:49:15;94944.00;;;18.74;57.75
48778;BME280;34578;0.000;0.000;2024-02-23T05:54:16;94944.25;;;18.65;55.61
48778;BME280;34578;0.000;0.000;2024-02-23T05:59:16;94931.16;;;18.51;52.88
48778;BME280;34578;0.000;0.000;2024-02-23T06:04:16;94944.19;;;18.68;55.04
48778;BME280;34578;0.000;0.000;2024-02-23T06:09:17;94957.63;;;18.70;55.73
48778;BME280;34578;0.000;0.000;2024-02-23T06:14:17;94939.28;;;18.62;55.80
48778;BME280;34578;0.000;0.000;2024-02-23T06:19:18;94940.75;;;18.69;56.27
48778;BME280;34578;0.000;0.000;2024-02-23T06:24:18;94930.50;;;18.73;56.00
48778;BME280;34578;0.000;0.000;2024-02-23T06:29:19;94918.63;;;18.46;55.60
48778;BME280;34578;0.000;0.000;2024-02-23T06:34:20;94932.66;;;18.58;55.22
48778;BME280;34578;0.000;0.000;2024-02-23T06:39:20;94927.47;;;18.61;55.92
48778;BME280;34578;0.000;0.000;2024-02-23T06:44:20;94929.97;;;18.62;56.23
48778;BME280;34578;0.000;0.000;2024-02-23T06:49:21;94924.91;;;18.62;56.58
48778;BME280;34578;0.000;0.000;2024-02-23T06:54:21;94941.81;;;18.62;56.09
48778;BME280;34578;0.000;0.000;2024-02-23T06:59:21;94952.81;;;18.61;55.78
48778;BME280;34578;0.000;0.000;2024-02-23T07:04:24;94952.81;;;18.61;54.91
48778;BME280;34578;0.000;0.000;2024-02-23T07:09:25;94958.78;;;18.60;55.07
48778;BME280;34578;0.000;0.000;2024-02-23T07:14:26;94924.69;;;18.41;55.42
48778;BME280;34578;0.000;0.000;2024-02-23T07:19:26;94964.63;;;18.62;55.37
48778;BME280;34578;0.000;0.000;2024-02-23T07:24:26;94964.72;;;18.59;55.60
48778;BME280;34578;0.000;0.000;2024-02-23T07:29:27;94950.56;;;18.52;55.47
48778;BME280;34578;0.000;0.000;2024-02-23T07:34:27;94973.09;;;18.61;55.23
48778;BME280;34578;0.000;0.000;2024-02-23T07:39:27;94974.75;;;18.62;55.26
48778;BME280;34578;0.000;0.000;2024-02-23T07:44:28;94984.13;;;18.60;55.05
48778;BME280;34578;0.000;0.000;2024-02-23T07:49:28;94990.94;;;18.58;55.42
48778;BME280;34578;0.000;0.000;2024-02-23T07:54:29;94989.28;;;18.57;54.74
48778;BME280;34578;0.000;0.000;2024-02-23T07:59:29;94978.28;;;18.58;55.36
48778;BME280;34578;0.000;0.000;2024-02-23T08:04:29;94974.88;;;18.57;55.26
48778;BME280;34578;0.000;0.000;2024-02-23T08:09:30;94949.78;;;18.50;54.75
48778;BME280;34578;0.000;0.000;2024-02-23T08:14:30;94973.47;;;18.49;53.31
48778;BME280;34578;0.000;0.000;2024-02-23T08:19:30;94964.88;;;18.53;53.98
48778;BME280;34578;0.000;0.000;2024-02-23T08:24:31;94956.41;;;18.54;54.48
48778;BME280;34578;0.000;0.000;2024-02-23T08:29:31;94958.94;;;18.54;54.56
48778;BME280;34578;0.000;0.000;2024-02-23T08:34:32;94951.34;;;18.54;54.59
48778;BME280;34578;0.000;0.000;2024-02-23T08:39:32;94940.41;;;18.52;54.76
48778;BME280;34578;0.000;0.000;2024-02-23T08:44:34;94936.06;;;18.57;54.13
48778;BME280;34578;0.000;0.000;2024-02-23T08:49:37;94930.28;;;18.52;54.97
48778;BME280;34578;0.000;0.000;2024-02-23T08:54:37;94944.50;;;18.56;54.96
48778;BME280;34578;0.000;0.000;2024-02-23T08:59:39;94931.78;;;18.59;55.20
48778;BME280;34578;0.000;0.000;2024-02-23T09:04:39;94931.78;;;18.59;54.98
48778;BME280;34578;0.000;0.000;2024-02-23T09:09:40;94922.50;;;18.58;55.21
48778;BME280;34578;0.000;0.000;2024-02-23T09:14:40;94915.78;;;18.57;55.13
48778;BME280;34578;0.000;0.000;2024-02-23T09:19:41;94911.56;;;18.56;55.21
48778;BME280;34578;0.000;0.000;2024-02-23T09:24:42;94914.03;;;18.59;55.13
48778;BME280;34578;0.000;0.000;2024-02-23T09:29:42;94908.13;;;18.58;55.22
48778;BME280;34578;0.000;0.000;2024-02-23T09:34:43;94907.31;;;18.58;55.14
48778;BME280;34578;0.000;0.000;2024-02-23T09:39:43;94902.25;;;18.58;55.34
48778;BME280;34578;0.000;0.000;2024-02-23T09:44:44;94909.75;;;18.61;55.31
48778;BME280;34578;0.000;0.000;2024-02-23T09:49:47;94908.91;;;18.60;55.32
48778;BME280;34578;0.000;0.000;2024-02-23T09:54:50;94908.97;;;18.59;55.96
48778;BME280;34578;0.000;0.000;2024-02-23T09:59:51;94898.06;;;18.57;55.33
48778;BME280;34578;0.000;0.000;2024-02-23T10:04:54;94909.78;;;18.59;55.45
48778;BME280;34578;0.000;0.000;2024-02-23T10:09:55;94899.72;;;18.58;55.39
48778;BME280;34578;0.000;0.000;2024-02-23T10:14:56;94897.25;;;18.55;55.35
48778;BME280;34578;0.000;0.000;2024-02-23T10:19:56;94897.06;;;18.61;55.32
48778;BME280;34578;0.000;0.000;2024-02-23T10:24:59;94896.28;;;18.59;55.24
48778;BME280;34578;0.000;0.000;2024-02-23T10:30:00;94891.16;;;18.60;55.32
48778;BME280;34578;0.000;0.000;2024-02-23T10:35:00;94878.72;;;18.53;55.18
48778;BME280;34578;0.000;0.000;2024-02-23T10:40:07;94888.59;;;18.62;55.26
48778;BME280;34578;0.000;0.000;2024-02-23T10:45:09;94877.53;;;18.64;55.35
48778;BME280;34578;0.000;0.000;2024-02-23T10:50:10;94860.03;;;18.57;55.14
48778;BME280;34578;0.000;0.000;2024-02-23T10:55:14;94865.00;;;18.60;55.21
48778;BME280;34578;0.000;0.000;2024-02-23T11:00:15;94875.03;;;18.63;55.28
48778;BME280;34578;0.000;0.000;2024-02-23T11:05:18;94864.91;;;18.63;55.10
48778;BME280;34578;0.000;0.000;2024-02-23T11:10:19;94864.91;;;18.63;55.06
48778;BME280;34578;0.000;0.000;2024-02-23T11:15:29;94866.53;;;18.65;55.25
48778;BME280;34578;0.000;0.000;2024-02-23T11:20:34;94841.22;;;18.64;55.31
48778;BME280;34578;0.000;0.000;2024-02-23T11:25:35;94846.97;;;18.69;55.16
48778;BME280;34578;0.000;0.000;2024-02-23T11:30:35;94847.81;;;18.69;55.33
48778;BME280;34578;0.000;0.000;2024-02-23T11:35:46;94826.09;;;18.61;55.30
48778;BME280;34578;0.000;0.000;2024-02-23T11:40:49;94840.91;;;18.74;55.12
48778;BME280;34578;0.000;0.000;2024-02-23T11:45:52;94852.75;;;18.74;55.00
48778;BME280;34578;0.000;0.000;2024-02-23T11:50:52;94836.59;;;18.76;54.94
48778;BME280;34578;0.000;0.000;2024-02-23T11:55:53;94841.59;;;18.79;55.09
48778;BME280;34578;0.000;0.000;2024-02-23T12:00:53;94828.84;;;18.81;55.40
48778;BME280;34578;0.000;0.000;2024-02-23T12:05:55;94825.34;;;18.85;55.28
48778;BME280;34578;0.000;0.000;2024-02-23T12:10:56;94806.91;;;18.80;55.24
48778;BME280;34578;0.000;0.000;2024-02-23T12:16:00;94803.72;;;18.75;55.38
48778;BME280;34578;0.000;0.000;2024-02-23T12:21:02;94802.72;;;18.79;55.57
48778;BME280;34578;0.000;0.000;2024-02-23T12:26:02;94821.34;;;18.78;53.34
48778;BME280;34578;0.000;0.000;2024-02-23T12:31:04;94818.31;;;18.67;52.48
48778;BME280;34578;0.000;0.000;2024-02-23T12:36:05;94812.38;;;18.68;53.54
48778;BME280;34578;0.000;0.000;2024-02-23T12:41:05;94818.63;;;18.58;50.44
48778;BME280;34578;0.000;0.000;2024-02-23T12:46:06;94824.06;;;18.72;52.96
48778;BME280;34578;0.000;0.000;2024-02-23T12:51:08;94819.59;;;18.80;53.66
48778;BME280;34578;0.000;0.000;2024-02-23T12:56:10;94815.31;;;18.82;54.17
48778;BME280;34578;0.000;0.000;2024-02-23T13:01:12;94808.03;;;18.71;54.33
48778;BME280;34578;0.000;0.000;2024-02-23T13:06:12;94800.34;;;18.74;54.88
48778;BME280;34578;0.000;0.000;2024-02-23T13:11:13;94795.13;;;18.79;55.17
48778;BME280;34578;0.000;0.000;2024-02-23T13:16:14;94806.00;;;18.82;55.21
48778;BME280;34578;0.000;0.000;2024-02-23T13:21:15;94797.50;;;18.83;55.68
48778;BME280;34578;0.000;0.000;2024-02-23T13:26:15;94794.97;;;18.83;55.63
48778;BME280;34578;0.000;0.000;2024-02-23T13:31:16;94771.81;;;18.68;56.20
48778;BME280;34578;0.000;0.000;2024-02-23T13:36:17;94768.25;;;18.73;55.95
48778;BME280;34578;0.000;0.000;2024-02-23T13:41:17;94769.00;;;18.77;55.89
48778;BME280;34578;0.000;0.000;2024-02-23T13:46:18;94753.78;;;18.51;50.88
48778;BME280;34578;0.000;0.000;2024-02-23T13:51:19;94755.63;;;18.46;53.54
48778;BME280;34578;0.000;0.000;2024-02-23T13:56:19;94746.84;;;18.56;54.74
48778;BME280;34578;0.000;0.000;2024-02-23T14:01:19;94743.97;;;18.66;55.15
48778;BME280;34578;0.000;0.000;2024-02-23T14:06:20;94742.16;;;18.71;55.48
48778;BME280;34578;0.000;0.000;2024-02-23T14:11:20;94736.03;;;18.77;55.73
48778;BME280;34578;0.000;0.000;2024-02-23T14:16:20;94742.97;;;18.72;55.37
48778;BME280;34578;0.000;0.000;2024-02-23T14:21:21;94752.91;;;18.78;55.80
48778;BME280;34578;0.000;0.000;2024-02-23T14:26:22;94738.69;;;18.74;55.85
48778;BME280;34578;0.000;0.000;2024-02-23T14:31:23;94758.59;;;18.84;56.37
48778;BME280;34578;0.000;0.000;2024-02-23T14:36:23;94737.66;;;18.79;56.31
48778;BME280;34578;0.000;0.000;2024-02-23T14:41:24;94750.06;;;18.87;56.44
48778;BME280;34578;0.000;0.000;2024-02-23T14:46:24;94741.84;;;18.80;57.25
48778;BME280;34578;0.000;0.000;2024-02-23T14:51:25;94746.91;;;18.80;56.27
48778;BME280;34578;0.000;0.000;2024-02-23T14:56:25;94741.00;;;18.80;55.93
48778;BME280;34578;0.000;0.000;2024-02-23T15:01:26;94740.22;;;18.78;56.20
48778;BME280;34578;0.000;0.000;2024-02-23T15:06:26;94713.69;;;18.63;56.16
48778;BME280;34578;0.000;0.000;2024-02-23T15:11:27;94734.28;;;18.79;56.32
48778;BME280;34578;0.000;0.000;2024-02-23T15:16:28;94730.09;;;18.78;56.27
48778;BME280;34578;0.000;0.000;2024-02-23T15:21:29;94727.44;;;18.81;56.40
48778;BME280;34578;0.000;0.000;2024-02-23T15:26:29;94717.31;;;18.81;56.25
48778;BME280;34578;0.000;0.000;2024-02-23T15:31:31;94712.31;;;18.79;56.25
48778;BME280;34578;0.000;0.000;2024-02-23T15:36:31;94709.78;;;18.79;56.41
48778;BME280;34578;0.000;0.000;2024-02-23T15:41:34;94705.63;;;18.77;56.29
48778;BME280;34578;0.000;0.000;2024-02-23T15:46:35;94696.25;;;18.79;57.26
48778;BME280;34578;0.000;0.000;2024-02-23T15:51:35;94699.41;;;18.85;57.38
48778;BME280;34578;0.000;0.000;2024-02-23T15:56:37;94700.25;;;18.86;57.57
48778;BME280;34578;0.000;0.000;2024-02-23T16:01:38;94700.94;;;18.91;57.06
48778;BME280;34578;0.000;0.000;2024-02-23T16:06:39;94701.78;;;18.90;57.70
48778;BME280;34578;0.000;0.000;2024-02-23T16:11:44;94699.94;;;18.95;57.65
48778;BME280;34578;0.000;0.000;2024-02-23T16:16:44;94703.03;;;19.03;57.51
48778;BME280;34578;0.000;0.000;2024-02-23T16:21:45;94696.97;;;19.07;57.65
48778;BME280;34578;0.000;0.000;2024-02-23T16:26:47;94701.81;;;19.14;57.21
48778;BME280;34578;0.000;0.000;2024-02-23T16:31:47;94696.59;;;19.19;57.02
48778;BME280;34578;0.000;0.000;2024-02-23T16:36:47;94708.19;;;19.26;56.89
48778;BME280;34578;0.000;0.000;2024-02-23T16:41:48;94695.50;;;19.26;56.85
48778;BME280;34578;0.000;0.000;2024-02-23T16:46:48;94711.16;;;19.37;56.88
48778;BME280;34578;0.000;0.000;2024-02-23T16:51:49;94712.63;;;19.44;56.79
48778;BME280;34578;0.000;0.000;2024-02-23T16:56:49;94717.66;;;19.45;56.74
48778;BME280;34578;0.000;0.000;2024-02-23T17:01:50;94719.00;;;19.31;56.19
48778;BME280;34578;0.000;0.000;2024-02-23T17:06:50;94734.13;;;19.34;55.46
48778;BME280;34578;0.000;0.000;2024-02-23T17:11:51;94737.38;;;19.37;55.86
48778;BME280;34578;0.000;0.000;2024-02-23T17:16:51;94743.06;;;19.44;55.76
48778;BME280;34578;0.000;0.000;2024-02-23T17:21:51;94743.34;;;19.36;55.75
48778;BME280;34578;0.000;0.000;2024-02-23T17:26:51;94746.13;;;19.29;56.14
48778;BME280;34578;0.000;0.000;2024-02-23T17:31:52;94758.09;;;19.25;56.27
48778;BME280;34578;0.000;0.000;2024-02-23T17:36:52;94757.31;;;19.23;56.01
48778;BME280;34578;0.000;0.000;2024-02-23T17:41:53;94754.94;;;19.17;56.21
48778;BME280;34578;0.000;0.000;2024-02-23T17:46:54;94763.41;;;19.18;56.25
48778;BME280;34578;0.000;0.000;2024-02-23T17:51:54;94749.38;;;19.08;55.45
48778;BME280;34578;0.000;0.000;2024-02-23T17:56:55;94764.31;;;19.15;56.17
48778;BME280;34578;0.000;0.000;2024-02-23T18:01:55;94763.41;;;19.18;55.90
48778;BME280;34578;0.000;0.000;2024-02-23T18:06:55;94772.06;;;19.12;57.39
48778;BME280;34578;0.000;0.000;2024-02-23T18:11:56;94771.31;;;19.09;57.06
48778;BME280;34578;0.000;0.000;2024-02-23T18:16:56;94776.44;;;19.07;57.07
48778;BME280;34578;0.000;0.000;2024-02-23T18:30:39;94772.75;;;19.42;56.88
48778;BME280;34578;0.000;0.000;2024-02-23T18:35:40;94776.63;;;19.27;57.40
48778;BME280;34578;0.000;0.000;2024-02-23T18:40:40;94781.13;;;19.19;57.83
48778;BME280;34578;0.000;0.000;2024-02-23T18:45:41;94777.00;;;19.15;57.82
48778;BME280;34578;0.000;0.000;2024-02-23T18:50:41;94775.41;;;19.13;57.61
48778;BME280;34578;0.000;0.000;2024-02-23T18:55:41;94766.13;;;19.12;57.75
48778;BME280;34578;0.000;0.000;2024-02-23T19:00:42;94756.28;;;19.03;58.67
48778;BME280;34578;0.000;0.000;2024-02-23T19:05:42;94764.59;;;19.08;58.49
48778;BME280;34578;0.000;0.000;2024-02-23T19:10:43;94752.09;;;19.02;58.58
48778;BME280;34578;0.000;0.000;2024-02-23T19:15:43;94763.78;;;19.06;58.30
48778;BME280;34578;0.000;0.000;2024-02-23T19:20:45;94762.13;;;19.05;58.61
48778;BME280;34578;0.000;0.000;2024-02-23T19:25:45;94761.25;;;19.06;58.18
48778;BME280;34578;0.000;0.000;2024-02-23T19:30:45;94764.59;;;19.08;57.97
48778;BME280;34578;0.000;0.000;2024-02-23T19:35:47;94760.44;;;19.05;58.03
48778;BME280;34578;0.000;0.000;2024-02-23T19:40:47;94750.16;;;19.10;57.57
48778;BME280;34578;0.000;0.000;2024-02-23T19:45:48;94755.31;;;19.07;58.39
48778;BME280;34578;0.000;0.000;2024-02-23T19:50:50;94764.69;;;19.05;57.66
48778;BME280;34578;0.000;0.000;2024-02-23T19:55:50;94773.84;;;19.09;57.57
48778;BME280;34578;0.000;0.000;2024-02-23T20:00:50;94778.03;;;19.10;57.86
48778;BME280;34578;0.000;0.000;2024-02-23T20:05:51;94782.34;;;19.08;58.18
48778;BME280;34578;0.000;0.000;2024-02-23T20:10:51;94783.06;;;19.11;58.44
48778;BME280;34578;0.000;0.000;2024-02-23T20:15:52;94785.38;;;19.17;57.85
48778;BME280;34578;0.000;0.000;2024-02-23T20:20:52;94777.47;;;19.02;57.43
48778;BME280;34578;0.000;0.000;2024-02-23T20:25:53;94778.34;;;19.01;58.38
48778;BME280;34578;0.000;0.000;2024-02-23T20:30:54;94781.69;;;19.01;59.31
48778;BME280;34578;0.000;0.000;2024-02-23T20:35:57;94784.31;;;19.00;58.56
48778;BME280;34578;0.000;0.000;2024-02-23T20:40:57;94774.34;;;18.94;59.38
48778;BME280;34578;0.000;0.000;2024-02-23T20:45:57;94779.28;;;18.98;58.28
48778;BME280;34578;0.000;0.000;2024-02-23T20:50:58;94785.03;;;19.03;57.71
48778;BME280;34578;0.000;0.000;2024-02-23T20:56:00;94784.19;;;19.03;57.88
48778;BME280;34578;0.000;0.000;2024-02-23T21:01:00;94810.41;;;19.03;57.97
48778;BME280;34578;0.000;0.000;2024-02-23T21:06:01;94821.34;;;19.04;58.59
48778;BME280;34578;0.000;0.000;2024-02-23T21:11:01;94833.38;;;18.99;58.07
48778;BME280;34578;0.000;0.000;2024-02-23T21:16:03;94830.84;;;18.99;57.77
48778;BME280;34578;0.000;0.000;2024-02-23T21:21:04;94829.16;;;18.98;57.92
48778;BME280;34578;0.000;0.000;2024-02-23T21:26:04;94826.59;;;18.98;58.16
48778;BME280;34578;0.000;0.000;2024-02-23T21:31:05;94834.31;;;18.95;58.09
48778;BME280;34578;0.000;0.000;2024-02-23T21:36:05;94841.94;;;18.95;57.61
48778;BME280;34578;0.000;0.000;2024-02-23T21:41:06;94826.03;;;18.90;57.87
48778;BME280;34578;0.000;0.000;2024-02-23T21:46:06;94835.09;;;18.97;57.72
48778;BME280;34578;0.000;0.000;2024-02-23T21:51:12;94845.16;;;19.00;57.70
48778;BME280;34578;0.000;0.000;2024-02-23T21:56:12;94833.25;;;19.02;57.67
48778;BME280;34578;0.000;0.000;2024-02-23T22:01:13;94837.56;;;19.00;57.78
48778;BME280;34578;0.000;0.000;2024-02-23T22:06:13;94847.63;;;19.01;57.56
48778;BME280;34578;0.000;0.000;2024-02-23T22:11:14;94844.03;;;19.08;57.70
48778;BME280;34578;0.000;0.000;2024-02-23T22:16:14;94835.75;;;19.03;57.29
48778;BME280;34578;0.000;0.000;2024-02-23T22:21:15;94845.94;;;19.02;57.55
48778;BME280;34578;0.000;0.000;2024-02-23T22:26:16;94831.00;;;18.93;57.67
48778;BME280;34578;0.000;0.000;2024-02-23T22:31:17;94845.16;;;19.00;57.71
48778;BME280;34578;0.000;0.000;2024-02-23T22:36:17;94836.88;;;18.95;57.84
48778;BME280;34578;0.000;0.000;2024-02-23T22:41:17;94841.94;;;18.95;57.83
48778;BME280;34578;0.000;0.000;2024-02-23T22:46:18;94848.63;;;18.97;57.59
48778;BME280;34578;0.000;0.000;2024-02-23T22:51:18;94844.44;;;18.96;57.66
48778;BME280;34578;0.000;0.000;2024-02-23T22:56:18;94847.09;;;18.92;57.84
48778;BME280;34578;0.000;0.000;2024-02-23T23:01:19;94843.69;;;18.93;57.95
48778;BME280;34578;0.000;0.000;2024-02-23T23:06:19;94849.66;;;18.92;58.00
48778;BME280;34578;0.000;0.000;2024-02-23T23:11:19;94853.06;;;18.91;57.94
48778;BME280;34578;0.000;0.000;2024-02-23T23:16:20;94851.34;;;18.91;57.95
48778;BME280;34578;0.000;0.000;2024-02-23T23:21:20;94872.50;;;18.90;58.04
48778;BME280;34578;0.000;0.000;2024-02-23T23:26:20;94889.41;;;18.90;58.05
48778;BME280;34578;0.000;0.000;2024-02-23T23:31:21;94901.28;;;18.89;57.88
48778;BME280;34578;0.000;0.000;2024-02-23T23:36:22;94899.66;;;18.87;58.31
48778;BME280;34578;0.000;0.000;2024-02-23T23:41:23;94896.34;;;18.85;58.37
48778;BME280;34578;0.000;0.000;2024-02-23T23:46:23;94916.59;;;18.86;58.19
48778;BME280;34578;0.000;0.000;2024-02-23T23:51:24;94915.75;;;18.86;58.40
48778;BME280;34578;0.000;0.000;2024-02-23T23:56:24;94922.47;;;18.87;58.13
